Time;durP1;ratioP1;P1;durP2;ratioP2;P2;SDS_P1;SDS_P2;PMS_P1;PMS_P2;Temp;Humidity;BMP_temperature;BMP_pressure;BME280_temperature;BME280_humidity;BME280_pressure;Samples;Min_cycle;Max_cycle;Signal;HPM_P1;HPM_P2
2023/10/20 00:01:52;;;;;;;9.73;2.73;;;;;;;-144.99;100.00;67352.69;5052984;28;20179;-86
2023/10/20 00:04:21;;;;;;;1.67;1.13;;;;;;;-144.99;100.00;67352.69;5052889;28;20757;-87
2023/10/20 00:07:02;;;;;;;;;;;;;;;;;;;;;
2023/10/20 00:09:29;;;;;;;3.23;2.93;;;;;;;-144.99;100.00;67352.69;5045584;28;20183;-86
2023/10/20 00:12:04;;;;;;;19.07;10.57;;;;;;;-144.99;100.00;67352.69;5053610;28;20283;-86
2023/10/20 00:14:54;;;;;;;28.47;11.00;;;;;;;-144.99;100.00;67352.69;5052480;28;20233;-86
2023/10/20 00:17:30;;;;;;;18.07;9.73;;;;;;;-144.99;100.00;67352.69;5053641;28;20554;-85
2023/10/20 00:20:06;;;;;;;8.30;6.50;;;;;;;-144.99;100.00;67352.69;5053059;28;20193;-86
2023/10/20 00:22:35;;;;;;;4.80;2.63;;;;;;;-144.99;100.00;67352.69;5045143;28;20262;-86
2023/10/20 00:25:06;;;;;;;11.90;6.50;;;;;;;-144.99;100.00;67352.69;5053988;28;20258;-87
2023/10/20 00:27:34;;;;;;;5.77;3.77;;;;;;;-144.99;100.00;67352.69;5045124;28;20182;-86
2023/10/20 00:30:07;;;;;;;4.30;4.00;;;;;;;-144.99;100.00;67352.69;5052340;28;20183;-85
2023/10/20 00:32:36;;;;;;;13.10;8.00;;;;;;;-144.99;100.00;67352.69;5045212;28;20791;-85
2023/10/20 00:35:14;;;;;;;18.50;7.83;;;;;;;-144.99;100.00;67352.69;5052151;28;20313;-84
2023/10/20 00:38:03;;;;;;;14.10;8.50;;;;;;;-144.99;100.00;67352.69;5047198;28;20186;-86
2023/10/20 00:40:31;;;;;;;21.03;10.13;;;;;;;-144.99;100.00;67352.69;5045472;28;20194;-86
2023/10/20 00:42:58;;;;;;;31.07;10.33;;;;;;;-144.99;100.00;67352.69;5052380;28;20183;-84
2023/10/20 00:45:24;;;;;;;61.17;21.93;;;;;;;-144.99;100.00;67352.69;5052603;28;20684;-86
2023/10/20 00:47:57;;;;;;;45.40;14.87;;;;;;;-144.99;100.00;67352.69;5052368;28;20214;-86
2023/10/20 00:50:31;;;;;;;9.90;3.67;;;;;;;-144.99;100.00;67352.69;5052291;28;20603;-86
2023/10/20 00:53:09;;;;;;;9.67;6.43;;;;;;;-144.99;100.00;67352.69;5051999;28;20198;-86
2023/10/20 00:55:37;;;;;;;4.70;4.30;;;;;;;-144.99;100.00;67352.69;5044859;28;20206;-86
2023/10/20 00:58:15;;;;;;;17.93;8.97;;;;;;;-144.99;100.00;67352.69;5053216;28;20190;-86
2023/10/20 01:00:45;;;;;;;7.90;5.40;;;;;;;-144.99;100.00;67352.69;5053351;28;20163;-85
2023/10/20 01:03:11;;;;;;;29.70;10.10;;;;;;;-144.99;100.00;67352.69;5051642;28;20194;-86
2023/10/20 01:05:37;;;;;;;8.27;5.47;;;;;;;-144.99;100.00;67352.69;5051845;28;20203;-85
2023/10/20 01:08:02;;;;;;;16.43;5.73;;;;;;;-144.99;100.00;67352.69;5052207;28;20179;-87
2023/10/20 01:10:28;;;;;;;16.93;8.87;;;;;;;-144.99;100.00;67352.69;5051926;28;20175;-86
2023/10/20 01:12:53;;;;;;;2.63;2.50;;;;;;;-144.99;100.00;67352.69;5051722;28;20241;-86
2023/10/20 01:15:19;;;;;;;24.73;10.33;;;;;;;-144.99;100.00;67352.69;5051634;28;20203;-86
2023/10/20 01:17:44;;;;;;;11.80;6.20;;;;;;;-144.99;100.00;67352.69;5051629;28;20205;-87
2023/10/20 01:20:11;;;;;;;33.40;11.47;;;;;;;-144.99;100.00;67352.69;5051749;28;20217;-86
2023/10/20 01:22:36;;;;;;;13.00;2.13;;;;;;;-144.99;100.00;67352.69;5052569;28;20266;-85
2023/10/20 01:25:02;;;;;;;20.60;9.30;;;;;;;-144.99;100.00;67352.69;5051733;28;20230;-86
2023/10/20 01:27:27;;;;;;;10.67;5.37;;;;;;;-144.99;100.00;67352.69;5043950;28;20186;-88
2023/10/20 01:29:52;;;;;;;15.60;6.27;;;;;;;-144.99;100.00;67352.69;5053088;28;20667;-83
2023/10/20 01:32:18;;;;;;;30.87;12.83;;;;;;;-144.99;100.00;67352.69;5051676;28;20230;-85
2023/10/20 01:34:43;;;;;;;12.77;3.43;;;;;;;-144.99;100.00;67352.69;5051399;28;20229;-86
2023/10/20 01:37:11;;;;;;;19.07;2.60;;;;;;;-144.99;100.00;67352.69;5051334;28;20183;-86
2023/10/20 01:39:37;;;;;;;9.83;3.53;;;;;;;-144.99;100.00;67352.69;5052862;28;20201;-85
2023/10/20 01:42:03;;;;;;;35.53;13.63;;;;;;;-144.99;100.00;67352.69;5051069;28;20187;-84
2023/10/20 01:44:28;;;;;;;1.63;1.53;;;;;;;-144.99;100.00;67352.69;5052403;28;20252;-85
2023/10/20 01:46:54;;;;;;;7.10;5.63;;;;;;;-144.99;100.00;67352.69;5052705;28;20191;-85
2023/10/20 01:49:20;;;;;;;10.63;4.73;;;;;;;-144.99;100.00;67352.69;5052751;28;20186;-86
2023/10/20 01:51:45;;;;;;;46.73;15.93;;;;;;;-144.99;100.00;67352.69;5052404;28;20780;-85
2023/10/20 01:54:10;;;;;;;29.30;9.70;;;;;;;-144.99;100.00;67352.69;5052424;28;20213;-86
2023/10/20 01:56:35;;;;;;;0.70;0.70;;;;;;;-144.99;100.00;67352.69;5052787;28;20188;-85
2023/10/20 01:59:03;;;;;;;6.87;5.20;;;;;;;-144.99;100.00;67352.69;5051407;28;20183;-84
2023/10/20 02:01:28;;;;;;;15.53;7.13;;;;;;;-144.99;100.00;67352.69;5051305;28;20182;-84
2023/10/20 02:03:54;;;;;;;6.10;4.47;;;;;;;-144.99;100.00;67352.69;5052390;28;20190;-86
2023/10/20 02:06:19;;;;;;;26.77;11.23;;;;;;;-144.99;100.00;67352.69;5051340;28;20179;-83
2023/10/20 02:08:44;;;;;;;9.13;4.33;;;;;;;-144.99;100.00;67352.69;5051483;28;20187;-86
2023/10/20 02:11:10;;;;;;;8.97;6.03;;;;;;;-144.99;100.00;67352.69;5051325;28;20234;-85
2023/10/20 02:13:38;;;;;;;21.27;8.53;;;;;;;-144.99;100.00;67352.69;5051368;28;20274;-85
2023/10/20 02:16:06;;;;;;;20.47;10.37;;;;;;;-144.99;100.00;67352.69;5051744;28;20206;-85
2023/10/20 02:18:31;;;;;;;12.83;4.43;;;;;;;-144.99;100.00;67352.69;5051368;28;20189;-86
2023/10/20 02:21:03;;;;;;;8.73;6.83;;;;;;;-144.99;100.00;67352.69;5051464;28;20266;-86
2023/10/20 02:23:35;;;;;;;31.10;9.90;;;;;;;-144.99;100.00;67352.69;5051018;28;20187;-84
2023/10/20 02:26:05;;;;;;;24.10;7.30;;;;;;;-144.99;100.00;67352.69;5051306;28;20207;-86
2023/10/20 02:28:34;;;;;;;4.70;4.23;;;;;;;-144.99;100.00;67352.69;5051244;28;20273;-85
2023/10/20 02:31:01;;;;;;;4.13;3.63;;;;;;;-144.99;100.00;67352.69;5051541;28;20196;-87
2023/10/20 02:33:27;;;;;;;28.33;7.60;;;;;;;-144.99;100.00;67352.69;5051937;28;20191;-85
2023/10/20 02:35:54;;;;;;;46.83;16.07;;;;;;;-144.99;100.00;67352.69;5054981;28;20206;-85
2023/10/20 02:38:19;;;;;;;24.77;7.87;;;;;;;-144.99;100.00;67352.69;5054885;28;20193;-86
2023/10/20 02:40:52;;;;;;;9.10;6.43;;;;;;;-144.99;100.00;67352.69;5055301;28;20274;-86
2023/10/20 02:43:17;;;;;;;14.57;8.47;;;;;;;-144.99;100.00;67352.69;5054742;28;20186;-85
2023/10/20 02:45:47;;;;;;;11.80;6.30;;;;;;;-144.99;100.00;67352.69;5055435;28;20771;-86
2023/10/20 02:48:13;;;;;;;11.83;9.13;;;;;;;-144.99;100.00;67352.69;5055837;28;20191;-86
2023/10/20 02:50:39;;;;;;;11.77;5.40;;;;;;;-144.99;100.00;67352.69;5057306;28;20302;-86
2023/10/20 02:53:04;;;;;;;13.23;5.90;;;;;;;-144.99;100.00;67352.69;5056462;28;20194;-85
2023/10/20 02:55:29;;;;;;;4.80;2.60;;;;;;;-144.99;100.00;67352.69;5056271;28;20207;-86
2023/10/20 02:57:55;;;;;;;12.03;5.67;;;;;;;-144.99;100.00;67352.69;5056274;28;20183;-86
2023/10/20 03:00:21;;;;;;;7.83;5.80;;;;;;;-144.99;100.00;67352.69;5057627;28;20318;-86
2023/10/20 03:02:48;;;;;;;4.53;4.07;;;;;;;-144.99;100.00;67352.69;5054892;28;20689;-87
2023/10/20 03:05:14;;;;;;;19.20;9.07;;;;;;;-144.99;100.00;67352.69;5054483;28;20215;-86
2023/10/20 03:07:39;;;;;;;13.47;6.53;;;;;;;-144.99;100.00;67352.69;5054670;28;20667;-85
2023/10/20 03:10:05;;;;;;;27.37;12.37;;;;;;;-144.99;100.00;67352.69;5054301;28;20218;-88
2023/10/20 03:12:31;;;;;;;11.07;4.93;;;;;;;-144.99;100.00;67352.69;5054260;28;20195;-87
2023/10/20 03:14:56;;;;;;;14.57;6.60;;;;;;;-144.99;100.00;67352.69;5054685;28;20211;-86
2023/10/20 03:17:22;;;;;;;11.10;7.77;;;;;;;-144.99;100.00;67352.69;5055913;28;20559;-86
2023/10/20 03:19:48;;;;;;;27.77;9.23;;;;;;;-144.99;100.00;67352.69;5055709;28;20558;-87
2023/10/20 03:22:13;;;;;;;17.67;5.93;;;;;;;-144.99;100.00;67352.69;5055550;28;20186;-86
2023/10/20 03:24:40;;;;;;;35.13;10.67;;;;;;;-144.99;100.00;67352.69;5054058;28;20211;-86
2023/10/20 03:27:07;;;;;;;5.63;5.07;;;;;;;-144.99;100.00;67352.69;5054106;28;20183;-86
2023/10/20 03:29:32;;;;;;;11.77;7.77;;;;;;;-144.99;100.00;67352.69;5053971;28;20241;-85
2023/10/20 03:31:57;;;;;;;17.53;7.10;;;;;;;-144.99;100.00;67352.69;5055477;28;20199;-87
2023/10/20 03:34:23;;;;;;;23.97;8.67;;;;;;;-144.99;100.00;67352.69;5053600;28;20219;-87
2023/10/20 03:36:48;;;;;;;13.73;3.23;;;;;;;-144.99;100.00;67352.69;5054146;28;20628;-87
2023/10/20 03:39:20;;;;;;;37.70;14.30;;;;;;;-144.99;100.00;67352.69;5051521;28;20635;-86
2023/10/20 03:41:47;;;;;;;23.03;10.00;;;;;;;-144.99;100.00;67352.69;5054110;28;20182;-86
2023/10/20 03:44:14;;;;;;;50.03;16.93;;;;;;;-144.99;100.00;67352.69;5053693;28;20203;-87
2023/10/20 03:46:48;;;;;;;34.47;9.67;;;;;;;-144.99;100.00;67352.69;5053824;28;20194;-88
2023/10/20 03:49:15;;;;;;;31.50;11.70;;;;;;;-144.99;100.00;67352.69;5054147;28;20191;-89
2023/10/20 03:51:48;;;;;;;23.13;11.53;;;;;;;-144.99;100.00;67352.69;5054486;28;20264;-89
2023/10/20 03:54:14;;;;;;;37.80;13.50;;;;;;;-144.99;100.00;67352.69;5052588;28;20265;-87
2023/10/20 03:56:41;;;;;;;19.20;10.30;;;;;;;-144.99;100.00;67352.69;5054493;28;20183;-87
2023/10/20 03:59:07;;;;;;;9.17;6.23;;;;;;;-144.99;100.00;67352.69;5053751;28;20187;-87
2023/10/20 04:01:32;;;;;;;18.67;7.47;;;;;;;-144.99;100.00;67352.69;5054524;28;20687;-88
2023/10/20 04:03:57;;;;;;;5.80;5.47;;;;;;;-144.99;100.00;67352.69;5054008;28;20187;-88
2023/10/20 04:06:22;;;;;;;4.83;4.23;;;;;;;-144.99;100.00;67352.69;5053665;28;20652;-87
2023/10/20 04:08:49;;;;;;;15.27;8.20;;;;;;;-144.99;100.00;67352.69;5054375;28;20560;-87
2023/10/20 04:11:14;;;;;;;7.73;5.77;;;;;;;-144.99;100.00;67352.69;5055503;28;20191;-88
2023/10/20 04:13:39;;;;;;;10.13;5.03;;;;;;;-144.99;100.00;67352.69;5053318;28;20182;-88
2023/10/20 04:16:12;;;;;;;14.17;6.73;;;;;;;-144.99;100.00;67352.69;5055122;28;20282;-88
2023/10/20 04:18:39;;;;;;;12.57;7.33;;;;;;;-144.99;100.00;67352.69;5054395;28;20556;-88
2023/10/20 04:21:05;;;;;;;11.83;6.03;;;;;;;-144.99;100.00;67352.69;5054210;28;20690;-88
2023/10/20 04:23:30;;;;;;;31.93;13.10;;;;;;;-144.99;100.00;67352.69;5054527;28;20187;-89
2023/10/20 04:25:55;;;;;;;30.70;11.77;;;;;;;-144.99;100.00;67352.69;5053968;28;20569;-87
2023/10/20 04:28:30;;;;;;;6.63;3.60;;;;;;;-144.99;100.00;67352.69;5055191;28;20186;-87
2023/10/20 04:41:56;;;;;;;20.00;6.60;;;;;;;-144.99;100.00;67352.69;5056074;28;20233;-88
2023/10/20 05:01:01;;;;;;;9.43;7.13;;;;;;;-144.99;100.00;67352.69;5075249;28;20178;-89
2023/10/20 05:07:53;;;;;;;13.97;6.30;;;;;;;-144.99;100.00;67352.69;5076814;28;20171;-90
2023/10/20 05:10:19;;;;;;;15.00;7.73;;;;;;;-144.99;100.00;67352.69;5056915;28;20178;-87
2023/10/20 05:12:45;;;;;;;3.93;3.63;;;;;;;-144.99;100.00;67352.69;5051801;28;20203;-87
2023/10/20 05:15:11;;;;;;;5.70;4.53;;;;;;;-144.99;100.00;67352.69;5051952;28;20207;-88
2023/10/20 05:17:36;;;;;;;11.27;7.97;;;;;;;-144.99;100.00;67352.69;5052299;28;20183;-87
2023/10/20 05:20:05;;;;;;;3.90;2.30;;;;;;;-144.99;100.00;67352.69;5051998;28;20657;-88
2023/10/20 05:22:30;;;;;;;10.73;8.93;;;;;;;-144.99;100.00;67352.69;5035490;28;20203;-88
2023/10/20 05:24:56;;;;;;;6.80;3.90;;;;;;;-144.99;100.00;67352.69;5051949;28;20233;-88
2023/10/20 05:27:21;;;;;;;7.33;3.43;;;;;;;-144.99;100.00;67352.69;5051745;28;20190;-87
2023/10/20 05:29:46;;;;;;;2.93;2.73;;;;;;;-144.99;100.00;67352.69;5052245;28;20241;-87
2023/10/20 05:32:11;;;;;;;5.00;3.97;;;;;;;-144.99;100.00;67352.69;5051344;28;20230;-88
2023/10/20 05:34:37;;;;;;;9.87;4.23;;;;;;;-144.99;100.00;67352.69;5074781;22;20222;-90
2023/10/20 05:37:02;;;;;;;6.30;4.70;;;;;;;-144.99;100.00;67352.69;5067897;28;20682;-89
2023/10/20 05:39:28;;;;;;;18.67;10.27;;;;;;;-144.99;100.00;67352.69;5062287;28;20186;-89
2023/10/20 05:41:53;;;;;;;7.67;5.43;;;;;;;-144.99;100.00;67352.69;5071678;28;20224;-88
2023/10/20 05:44:23;;;;;;;6.17;5.13;;;;;;;-144.99;100.00;67352.69;5070207;28;20186;-89
2023/10/20 05:46:49;;;;;;;15.00;4.70;;;;;;;-144.99;100.00;67352.69;5070412;28;20211;-89
2023/10/20 05:49:15;;;;;;;22.27;11.67;;;;;;;-144.99;100.00;67352.69;5071699;28;20178;-88
2023/10/20 05:51:40;;;;;;;4.27;3.87;;;;;;;-144.99;100.00;67352.69;5072327;28;20206;-89
2023/10/20 05:54:05;;;;;;;16.37;3.13;;;;;;;-144.99;100.00;67352.69;5071519;28;20599;-89
2023/10/20 05:56:31;;;;;;;8.13;5.63;;;;;;;-144.99;100.00;67352.69;5069420;28;20224;-88
2023/10/20 05:58:56;;;;;;;4.47;4.10;;;;;;;-144.99;100.00;67352.69;5070191;28;20805;-89
2023/10/20 06:01:22;;;;;;;6.47;3.80;;;;;;;-144.99;100.00;67352.69;5071272;28;20239;-88
2023/10/20 06:03:47;;;;;;;7.03;5.70;;;;;;;-144.99;100.00;67352.69;5071117;28;20675;-89
2023/10/20 06:06:12;;;;;;;9.23;6.47;;;;;;;-144.99;100.00;67352.69;5069951;28;20202;-89
2023/10/20 06:08:37;;;;;;;7.17;4.20;;;;;;;-144.99;100.00;67352.69;5071587;28;20174;-88
2023/10/20 06:11:04;;;;;;;4.07;3.77;;;;;;;-144.99;100.00;67352.69;5074275;28;20285;-89
2023/10/20 06:13:35;;;;;;;4.13;3.73;;;;;;;-144.99;100.00;67352.69;5075830;28;20258;-88
2023/10/20 06:16:08;;;;;;;3.73;3.40;;;;;;;-144.99;100.00;67352.69;5077139;28;20202;-88
2023/10/20 06:18:34;;;;;;;2.83;2.63;;;;;;;-144.99;100.00;67352.69;5084296;28;20185;-89
2023/10/20 06:20:59;;;;;;;8.30;5.63;;;;;;;-144.99;100.00;67352.69;5077333;28;20586;-88
2023/10/20 06:23:24;;;;;;;7.87;7.13;;;;;;;-144.99;100.00;67352.69;5077331;28;20185;-89
2023/10/20 06:25:50;;;;;;;11.03;8.93;;;;;;;-144.99;100.00;67352.69;5075611;28;20209;-89
2023/10/20 06:28:15;;;;;;;12.30;10.47;;;;;;;-144.99;100.00;67352.69;5073780;28;20186;-88
2023/10/20 06:30:44;;;;;;;3.23;2.67;;;;;;;-144.99;100.00;67352.69;5073622;28;20277;-88
2023/10/20 06:35:51;;;;;;;8.93;5.93;;;;;;;-144.99;100.00;67352.69;5074959;28;20222;-89
2023/10/20 06:38:30;;;;;;;11.43;7.37;;;;;;;-144.99;100.00;67352.69;5073806;28;20189;-88
2023/10/20 06:40:57;;;;;;;5.40;4.90;;;;;;;-144.99;100.00;67352.69;5074941;28;20174;-88
2023/10/20 06:43:23;;;;;;;6.03;5.43;;;;;;;-144.99;100.00;67352.69;5073714;28;20228;-88
2023/10/20 06:46:01;;;;;;;5.27;4.70;;;;;;;-144.99;100.00;67352.69;5075307;28;20725;-88
2023/10/20 06:48:28;;;;;;;2.20;1.97;;;;;;;-144.99;100.00;67352.69;5074756;28;20178;-88
2023/10/20 06:50:53;;;;;;;1.60;1.50;;;;;;;-144.99;100.00;67352.69;5074682;28;20202;-88
2023/10/20 06:53:19;;;;;;;4.13;3.77;;;;;;;-144.99;100.00;67352.69;5074270;28;20257;-88
2023/10/20 06:55:46;;;;;;;9.97;6.63;;;;;;;-144.99;100.00;67352.69;5073295;28;20205;-88
2023/10/20 06:58:12;;;;;;;8.67;7.77;;;;;;;-144.99;100.00;67352.69;5073137;28;20189;-89
2023/10/20 07:00:38;;;;;;;3.80;3.50;;;;;;;-144.99;100.00;67352.69;5074460;28;20186;-88
2023/10/20 07:03:04;;;;;;;3.47;3.17;;;;;;;-144.99;100.00;67352.69;5073987;28;20187;-88
2023/10/20 07:05:31;;;;;;;6.23;3.97;;;;;;;-144.99;100.00;67352.69;5074235;28;20194;-88
2023/10/20 07:07:59;;;;;;;4.77;4.33;;;;;;;-144.99;100.00;67352.69;5073141;28;20194;-89
2023/10/20 07:10:25;;;;;;;4.43;4.03;;;;;;;-144.99;100.00;67352.69;5074188;28;20640;-88
2023/10/20 07:12:51;;;;;;;8.73;7.67;;;;;;;-144.99;100.00;67352.69;5072615;28;20605;-88
2023/10/20 07:15:16;;;;;;;5.57;5.17;;;;;;;-144.99;100.00;67352.69;5072848;28;20205;-88
2023/10/20 07:17:42;;;;;;;4.80;3.83;;;;;;;-144.99;100.00;67352.69;5074197;28;20182;-88
2023/10/20 07:20:08;;;;;;;6.60;6.07;;;;;;;-144.99;100.00;67352.69;5072651;28;20196;-88
2023/10/20 07:22:33;;;;;;;2.70;2.50;;;;;;;-144.99;100.00;67352.69;5073731;28;20182;-89
2023/10/20 07:24:59;;;;;;;9.03;8.23;;;;;;;-144.99;100.00;67352.69;5074124;28;20610;-89
2023/10/20 07:27:25;;;;;;;2.90;2.70;;;;;;;-144.99;100.00;67352.69;5073788;28;20251;-87
2023/10/20 07:29:50;;;;;;;5.80;5.30;;;;;;;-144.99;100.00;67352.69;5074032;28;20185;-88
2023/10/20 07:32:16;;;;;;;5.43;4.83;;;;;;;-144.99;100.00;67352.69;5073690;28;20214;-89
2023/10/20 07:34:42;;;;;;;7.07;6.43;;;;;;;-144.99;100.00;67352.69;5072259;28;20194;-88
2023/10/20 07:37:07;;;;;;;5.13;4.73;;;;;;;-144.99;100.00;67352.69;5067874;28;20274;-88
2023/10/20 07:39:35;;;;;;;8.50;7.70;;;;;;;-144.99;100.00;67352.69;5071908;28;20563;-88
2023/10/20 07:42:01;;;;;;;3.50;3.20;;;;;;;-144.99;100.00;67352.69;5072151;28;20175;-89
2023/10/20 07:44:26;;;;;;;3.10;2.87;;;;;;;-144.99;100.00;67352.69;5073225;28;20277;-89
2023/10/20 07:46:51;;;;;;;3.50;3.20;;;;;;;-144.99;100.00;67352.69;5073466;28;20668;-88
2023/10/20 07:49:17;;;;;;;1.53;1.50;;;;;;;-144.99;100.00;67352.69;5073471;28;20186;-89
2023/10/20 07:51:43;;;;;;;2.47;2.30;;;;;;;-144.99;100.00;67352.69;5073389;28;20273;-89
2023/10/20 07:54:09;;;;;;;5.40;4.90;;;;;;;-144.99;100.00;67352.69;5071917;28;20236;-89
2023/10/20 07:56:35;;;;;;;2.93;2.70;;;;;;;-144.99;100.00;67352.69;5073131;28;20611;-89
2023/10/20 07:59:00;;;;;;;7.83;3.70;;;;;;;-144.99;100.00;67352.69;5071970;28;20174;-89
2023/10/20 08:01:26;;;;;;;2.27;2.17;;;;;;;-144.99;100.00;67352.69;5072021;28;20179;-89
2023/10/20 08:03:52;;;;;;;4.40;4.00;;;;;;;-144.99;100.00;67352.69;5071750;28;20277;-88
2023/10/20 08:06:18;;;;;;;2.10;2.00;;;;;;;-144.99;100.00;67352.69;5073067;28;20202;-89
2023/10/20 08:08:44;;;;;;;1.57;1.27;;;;;;;-144.99;100.00;67352.69;5069100;28;20180;-88
2023/10/20 08:11:10;;;;;;;3.80;3.47;;;;;;;-144.99;100.00;67352.69;5072468;28;20606;-88
2023/10/20 08:13:37;;;;;;;7.80;6.97;;;;;;;-144.99;100.00;67352.69;5072777;28;20261;-88
2023/10/20 08:16:04;;;;;;;1.50;1.17;;;;;;;-144.99;100.00;67352.69;5069077;28;20271;-88
2023/10/20 08:18:33;;;;;;;4.97;4.47;;;;;;;-144.99;100.00;67352.69;5071064;28;20187;-89
2023/10/20 08:21:07;;;;;;;1.23;1.13;;;;;;;-144.99;100.00;67352.69;5072570;28;20170;-88
2023/10/20 08:23:33;;;;;;;4.27;3.87;;;;;;;-144.99;100.00;67352.69;5081979;28;20182;-88
2023/10/20 08:25:58;;;;;;;1.23;1.13;;;;;;;-144.99;100.00;67352.69;5072609;28;20203;-89
2023/10/20 08:28:25;;;;;;;2.60;2.43;;;;;;;-144.99;100.00;67352.69;5070800;28;20207;-89
2023/10/20 08:30:50;;;;;;;1.93;1.50;;;;;;;-144.99;100.00;67352.69;5071627;28;20187;-88
2023/10/20 08:33:16;;;;;;;6.80;2.80;;;;;;;-144.99;100.00;67352.69;5072083;28;20183;-89
2023/10/20 08:35:41;;;;;;;3.13;2.93;;;;;;;-144.99;100.00;67352.69;5071845;28;20631;-88
2023/10/20 08:38:07;;;;;;;2.73;2.57;;;;;;;-144.99;100.00;67352.69;5068642;28;20182;-88
2023/10/20 08:40:35;;;;;;;2.57;2.47;;;;;;;-144.99;100.00;67352.69;5060592;28;20209;-88
2023/10/20 08:43:04;;;;;;;3.80;3.50;;;;;;;-144.99;100.00;67352.69;5069711;28;20224;-88
2023/10/20 08:45:33;;;;;;;4.70;4.30;;;;;;;-144.99;100.00;67352.69;5065685;28;20210;-89
2023/10/20 08:48:02;;;;;;;4.33;3.93;;;;;;;-144.99;100.00;67352.69;5067941;28;20170;-88
2023/10/20 08:50:31;;;;;;;4.43;4.00;;;;;;;-144.99;100.00;67352.69;5066957;28;20181;-89
2023/10/20 08:53:01;;;;;;;5.57;5.07;;;;;;;-144.99;100.00;67352.69;5067041;28;20170;-88
2023/10/20 08:55:27;;;;;;;1.37;1.27;;;;;;;-144.99;100.00;67352.69;5070752;28;20205;-88
2023/10/20 08:57:52;;;;;;;1.83;1.73;;;;;;;-144.99;100.00;67352.69;5071961;28;20179;-90
2023/10/20 09:00:20;;;;;;;2.13;1.93;;;;;;;-144.99;100.00;67352.69;5072112;28;20714;-90
2023/10/20 09:02:47;;;;;;;4.93;4.43;;;;;;;-144.99;100.00;67352.69;5071989;28;20186;-90
2023/10/20 09:05:21;;;;;;;0.40;0.40;;;;;;;-144.99;100.00;67352.69;5071992;28;20230;-90
2023/10/20 09:07:53;;;;;;;6.73;6.13;;;;;;;-144.99;100.00;67352.69;5072262;28;20177;-88
2023/10/20 09:10:19;;;;;;;4.57;4.17;;;;;;;-144.99;100.00;67352.69;5070971;28;20652;-88
2023/10/20 09:12:44;;;;;;;1.10;1.03;;;;;;;-144.99;100.00;67352.69;5071640;28;20206;-88
2023/10/20 09:15:11;;;;;;;7.77;3.37;;;;;;;-144.99;100.00;67352.69;5071996;28;20902;-89
2023/10/20 09:17:36;;;;;;;1.60;1.43;;;;;;;-144.99;100.00;67352.69;5066417;28;20182;-89
2023/10/20 09:20:12;;;;;;;2.17;1.97;;;;;;;-144.99;100.00;67352.69;5065290;28;20225;-89
2023/10/20 09:22:38;;;;;;;3.60;1.53;;;;;;;-144.99;100.00;67352.69;5063257;28;20605;-89
2023/10/20 09:25:10;;;;;;;2.67;2.47;;;;;;;-144.99;100.00;67352.69;5071829;28;20202;-90
2023/10/20 09:27:37;;;;;;;1.97;1.87;;;;;;;-144.99;100.00;67352.69;5080062;28;20285;-88
2023/10/20 09:30:08;;;;;;;1.50;1.40;;;;;;;-144.99;100.00;67352.69;5070634;28;20190;-89
2023/10/20 09:32:34;;;;;;;0.77;0.73;;;;;;;-144.99;100.00;67352.69;5070491;28;20576;-88
2023/10/20 09:34:59;;;;;;;2.63;0.97;;;;;;;-144.99;100.00;67352.69;5070465;28;20222;-88
2023/10/20 09:37:28;;;;;;;1.80;1.70;;;;;;;-144.99;100.00;67352.69;5071668;28;20701;-88
2023/10/20 09:39:59;;;;;;;1.47;0.83;;;;;;;-144.99;100.00;67352.69;5065416;28;20179;-89
2023/10/20 09:42:26;;;;;;;1.53;1.17;;;;;;;-144.99;100.00;67352.69;5069539;28;20178;-89
2023/10/20 09:45:06;;;;;;;1.40;1.30;;;;;;;-144.99;100.00;67352.69;5065945;28;20211;-88
2023/10/20 09:47:35;;;;;;;3.33;2.03;;;;;;;-144.99;100.00;67352.69;5063446;28;20659;-89
2023/10/20 09:50:01;;;;;;;2.23;2.03;;;;;;;-144.99;100.00;67352.69;5070405;28;20556;-88
2023/10/20 09:52:29;;;;;;;0.77;0.70;;;;;;;-144.99;100.00;67352.69;5071360;28;20202;-89
2023/10/20 09:54:55;;;;;;;1.90;1.73;;;;;;;-144.99;100.00;67352.69;5070243;28;20243;-89
2023/10/20 09:57:22;;;;;;;3.50;2.47;;;;;;;-144.99;100.00;67352.69;5071446;28;20593;-89
2023/10/20 09:59:54;;;;;;;0.73;0.73;;;;;;;-144.99;100.00;67352.69;5070401;28;20178;-88
2023/10/20 10:02:30;;;;;;;1.13;1.07;;;;;;;-144.99;100.00;67352.69;5070121;28;20182;-89
2023/10/20 10:04:59;;;;;;;1.00;1.00;;;;;;;-144.99;100.00;67352.69;5068872;28;20336;-89
2023/10/20 10:07:34;;;;;;;0.80;0.80;;;;;;;-144.99;100.00;67352.69;5069932;28;20209;-89
2023/10/20 10:09:59;;;;;;;0.90;0.87;;;;;;;-144.99;100.00;67352.69;5071336;28;20193;-89
2023/10/20 10:12:27;;;;;;;3.90;3.00;;;;;;;-144.99;100.00;67352.69;5071305;28;20206;-89
2023/10/20 10:15:14;;;;;;;2.80;2.60;;;;;;;-144.99;100.00;67352.69;5071163;28;20224;-89
2023/10/20 10:17:47;;;;;;;1.60;1.50;;;;;;;-144.99;100.00;67352.69;5071344;28;20193;-89
2023/10/20 10:20:23;;;;;;;1.77;1.63;;;;;;;-144.99;100.00;67352.69;5071222;28;20266;-89
2023/10/20 10:23:04;;;;;;;1.23;0.80;;;;;;;-144.99;100.00;67352.69;5071052;28;20558;-88
2023/10/20 10:25:37;;;;;;;2.20;2.00;;;;;;;-144.99;100.00;67352.69;5070210;28;20210;-89
2023/10/20 10:28:15;;;;;;;2.03;1.87;;;;;;;-144.99;100.00;67352.69;5071262;28;20186;-90
2023/10/20 10:30:42;;;;;;;2.83;2.60;;;;;;;-144.99;100.00;67352.69;5069756;28;20210;-88
2023/10/20 10:33:10;;;;;;;0.40;0.27;;;;;;;-144.99;100.00;67352.69;5069615;28;20190;-89
2023/10/20 10:35:39;;;;;;;0.50;0.50;;;;;;;-144.99;100.00;67352.69;5071181;28;20214;-89
2023/10/20 10:38:17;;;;;;;3.33;3.07;;;;;;;-144.99;100.00;67352.69;5069914;28;20183;-88
2023/10/20 10:40:46;;;;;;;0.83;0.83;;;;;;;-144.99;100.00;67352.69;5069982;28;20282;-89
2023/10/20 10:43:18;;;;;;;0.53;0.53;;;;;;;-144.99;100.00;67352.69;5069272;28;20186;-88
2023/10/20 10:45:43;;;;;;;0.87;0.87;;;;;;;-144.99;100.00;67352.69;5069643;28;20214;-89
2023/10/20 10:48:18;;;;;;;1.27;1.03;;;;;;;-144.99;100.00;67352.69;5071067;28;20186;-89
2023/10/20 10:50:45;;;;;;;1.63;1.50;;;;;;;-144.99;100.00;67352.69;5070970;28;20548;-88
2023/10/20 10:53:12;;;;;;;1.90;1.77;;;;;;;-144.99;100.00;67352.69;5070614;28;20586;-88
2023/10/20 10:55:38;;;;;;;2.70;2.40;;;;;;;-144.99;100.00;67352.69;5072400;28;20207;-89
2023/10/20 10:58:14;;;;;;;0.87;0.87;;;;;;;-144.99;100.00;67352.69;5074579;28;20392;-89
2023/10/20 11:00:41;;;;;;;1.50;1.40;;;;;;;-144.99;100.00;67352.69;5066577;28;20209;-89
2023/10/20 11:03:08;;;;;;;1.17;1.17;;;;;;;-144.99;100.00;67352.69;5067732;28;20537;-88
2023/10/20 11:05:33;;;;;;;1.10;1.00;;;;;;;-144.99;100.00;67352.69;5074214;28;20199;-89
2023/10/20 11:08:01;;;;;;;2.90;2.37;;;;;;;-144.99;100.00;67352.69;5074278;28;20529;-88
2023/10/20 11:10:28;;;;;;;1.13;0.70;;;;;;;-144.99;100.00;67352.69;5074084;28;20190;-89
2023/10/20 11:12:54;;;;;;;2.23;2.03;;;;;;;-144.99;100.00;67352.69;5073570;28;20285;-89
2023/10/20 11:15:20;;;;;;;2.50;2.23;;;;;;;-144.99;100.00;67352.69;5072650;28;20199;-89
2023/10/20 11:17:45;;;;;;;2.10;2.00;;;;;;;-144.99;100.00;67352.69;5073907;28;20232;-89
2023/10/20 11:20:13;;;;;;;3.27;0.90;;;;;;;-144.99;100.00;67352.69;5072632;28;20194;-89
2023/10/20 11:22:39;;;;;;;0.20;0.20;;;;;;;-144.99;100.00;67352.69;5072753;28;20532;-89
2023/10/20 11:25:05;;;;;;;2.07;1.83;;;;;;;-144.99;100.00;67352.69;5073875;28;20209;-89
2023/10/20 11:27:42;;;;;;;0.70;0.67;;;;;;;-144.99;100.00;67352.69;5074423;28;20556;-89
2023/10/20 11:30:09;;;;;;;2.30;2.10;;;;;;;-144.99;100.00;67352.69;5072827;28;20213;-88
2023/10/20 11:32:35;;;;;;;1.53;1.43;;;;;;;-144.99;100.00;67352.69;5073525;28;20202;-89
2023/10/20 11:37:28;;;;;;;0.60;0.60;;;;;;;-144.99;100.00;67352.69;5040199;28;20203;-85
2023/10/20 11:39:53;;;;;;;1.50;1.40;;;;;;;-144.99;100.00;67352.69;5038050;28;20226;-85
2023/10/20 11:42:19;;;;;;;1.40;1.30;;;;;;;-144.99;100.00;67352.69;5031696;28;20642;-85
2023/10/20 11:44:44;;;;;;;1.83;1.73;;;;;;;-144.99;100.00;67352.69;5034836;28;20683;-85
2023/10/20 11:47:09;;;;;;;1.47;1.37;;;;;;;-144.99;100.00;67352.69;5045021;28;20196;-85